Time;durP1;ratioP1;P1;durP2;ratioP2;P2;SDS_P1;SDS_P2;PMS_P1;PMS_P2;Temp;Humidity;BMP_temperature;BMP_pressure;BME280_temperature;BME280_humidity;BME280_pressure;Samples;Min_cycle;Max_cycle;Signal;HPM_P1;HPM_P2
2021/01/23 00:00:28;;;;;;;;;;;2.10;89.50;;;;;;5053101;28;20372;-78
2021/01/23 00:02:53;;;;;;;;;;;2.00;89.40;;;;;;5035968;28;19912;-76
2021/01/23 00:05:19;;;;;;;;;;;2.00;89.50;;;;;;5019197;28;20439;-76
2021/01/23 00:07:44;;;;;;;;;;;2.00;89.50;;;;;;5035004;28;19909;-76
2021/01/23 00:10:10;;;;;;;;;;;2.00;89.40;;;;;;5035494;28;20007;-76
2021/01/23 00:12:36;;;;;;;;;;;1.90;89.40;;;;;;5018416;28;19913;-77
2021/01/23 00:15:01;;;;;;;;;;;1.90;89.50;;;;;;5018559;28;19916;-76
2021/01/23 00:17:27;;;;;;;;;;;1.90;89.60;;;;;;5035574;28;19910;-82
2021/01/23 00:19:52;;;;;;;;;;;1.90;89.60;;;;;;5035192;28;19916;-76
2021/01/23 00:22:18;;;;;;;;;;;1.90;89.50;;;;;;5052970;28;20288;-77
2021/01/23 00:24:43;;;;;;;;;;;1.90;89.60;;;;;;5018301;28;19935;-76
2021/01/23 00:27:09;;;;;;;;;;;2.00;89.70;;;;;;5035223;28;19913;-76
2021/01/23 00:29:34;;;;;;;;;;;2.10;89.70;;;;;;5034047;28;19919;-76
2021/01/23 00:32:00;;;;;;;;;;;2.20;89.80;;;;;;5034837;28;20387;-76
2021/01/23 00:34:25;;;;;;;;;;;2.20;89.60;;;;;;5035181;28;20307;-76
2021/01/23 00:36:51;;;;;;;;;;;2.30;89.60;;;;;;5034879;28;20748;-77
2021/01/23 00:39:16;;;;;;;;;;;2.40;89.70;;;;;;5018566;28;19917;-76
2021/01/23 00:41:42;;;;;;;;;;;2.40;89.50;;;;;;5018505;28;19908;-76
2021/01/23 00:44:08;;;;;;;;;;;2.30;89.40;;;;;;5052812;28;19904;-76
2021/01/23 00:46:33;;;;;;;;;;;2.30;89.20;;;;;;5052554;28;19986;-80
2021/01/23 00:48:59;;;;;;;;;;;2.20;89.10;;;;;;5051922;28;20343;-76
2021/01/23 00:51:24;;;;;;;;;;;2.10;89.20;;;;;;5035575;28;19915;-76
2021/01/23 00:53:50;;;;;;;;;;;2.10;89.20;;;;;;5051852;28;19975;-76
2021/01/23 00:56:15;;;;;;;;;;;2.00;89.20;;;;;;5035540;28;19955;-76
2021/01/23 00:58:41;;;;;;;;;;;2.00;89.30;;;;;;5035020;28;19904;-76
2021/01/23 01:01:06;;;;;;;;;;;2.00;89.40;;;;;;5051712;28;19909;-76
2021/01/23 01:03:32;;;;;;;;;;;2.10;89.50;;;;;;5035621;28;19913;-80
2021/01/23 01:05:57;;;;;;;;;;;2.10;89.50;;;;;;5038470;28;20349;-77
2021/01/23 01:08:23;;;;;;;;;;;2.10;89.50;;;;;;5038356;28;19912;-76
2021/01/23 01:10:49;;;;;;;;;;;2.10;89.40;;;;;;5038225;28;19905;-76
2021/01/23 01:13:15;;;;;;;;;;;2.10;89.40;;;;;;5038426;28;19904;-77
2021/01/23 01:15:40;;;;;;;;;;;2.10;89.50;;;;;;5054905;28;19909;-78
2021/01/23 01:18:06;;;;;;;;;;;2.10;89.40;;;;;;5056519;28;19904;-76
2021/01/23 01:20:32;;;;;;;;;;;2.10;89.50;;;;;;5038406;28;19905;-76
2021/01/23 01:22:58;;;;;;;;;;;2.10;89.50;;;;;;5038091;28;19944;-75
2021/01/23 01:25:23;;;;;;;;;;;2.10;89.60;;;;;;5038062;28;19917;-76
2021/01/23 01:27:49;;;;;;;;;;;2.10;89.50;;;;;;5055547;28;19966;-75
2021/01/23 01:30:15;;;;;;;;;;;2.10;89.40;;;;;;5034584;28;19921;-76
2021/01/23 01:32:40;;;;;;;;;;;2.10;89.40;;;;;;5018292;28;19913;-78
2021/01/23 01:35:06;;;;;;;;;;;2.10;89.40;;;;;;5034628;28;19960;-76
2021/01/23 01:37:32;;;;;;;;;;;2.00;89.40;;;;;;5034862;28;19960;-76
2021/01/23 01:39:57;;;;;;;;;;;2.00;89.40;;;;;;5035518;28;19963;-76
2021/01/23 01:42:23;;;;;;;;;;;2.00;89.50;;;;;;5034589;28;19913;-77
2021/01/23 01:44:48;;;;;;;;;;;2.00;89.50;;;;;;5034056;28;20357;-76
2021/01/23 01:47:14;;;;;;;;;;;2.00;89.50;;;;;;5034140;28;20270;-76
2021/01/23 01:49:39;;;;;;;;;;;2.00;89.50;;;;;;5017541;28;19921;-81
2021/01/23 01:52:05;;;;;;;;;;;2.00;89.50;;;;;;5034031;28;19916;-76
2021/01/23 01:54:30;;;;;;;;;;;2.00;89.60;;;;;;5033958;28;20385;-77
2021/01/23 01:56:56;;;;;;;;;;;2.00;89.70;;;;;;5033627;28;20392;-76
2021/01/23 01:59:22;;;;;;;;;;;2.00;89.70;;;;;;5016482;28;19962;-76
2021/01/23 02:01:47;;;;;;;;;;;2.00;89.70;;;;;;5033313;28;19911;-77
2021/01/23 02:04:32;;;;;;;;;;;2.00;89.80;;;;;;5017017;28;19913;-76
2021/01/23 02:07:30;;;;;;;;;;;2.00;89.90;;;;;;5032693;28;19940;-76
2021/01/23 02:10:14;;;;;;;;;;;2.00;90.00;;;;;;5022110;28;19913;-77
2021/01/23 02:12:59;;;;;;;;;;;2.00;90.00;;;;;;5033336;28;20436;-76
2021/01/23 02:15:26;;;;;;;;;;;2.00;90.20;;;;;;5032231;28;19996;-76
2021/01/23 02:17:53;;;;;;;;;;;2.00;90.10;;;;;;5034232;28;19905;-75
2021/01/23 02:20:19;;;;;;;;;;;2.00;90.10;;;;;;5034321;28;19905;-75
2021/01/23 02:23:04;;;;;;;;;;;2.10;90.10;;;;;;5034263;28;19962;-85
2021/01/23 02:25:34;;;;;;;;;;;2.00;90.10;;;;;;5033026;28;19912;-76
2021/01/23 02:28:11;;;;;;;;;;;2.00;90.10;;;;;;5033142;28;19993;-76
2021/01/23 02:30:56;;;;;;;;;;;2.00;90.20;;;;;;5033313;28;19996;-76
2021/01/23 02:33:22;;;;;;;;;;;2.00;90.30;;;;;;5032894;28;19909;-77
2021/01/23 02:35:48;;;;;;;;;;;2.00;90.40;;;;;;5033942;28;20003;-80
2021/01/23 02:38:14;;;;;;;;;;;2.10;90.50;;;;;;5033137;28;19913;-76
2021/01/23 02:40:40;;;;;;;;;;;2.20;90.50;;;;;;5033599;28;19913;-76
2021/01/23 02:43:05;;;;;;;;;;;2.40;90.40;;;;;;5034128;28;19966;-77
2021/01/23 02:45:31;;;;;;;;;;;2.50;90.40;;;;;;5033346;28;20266;-76
2021/01/23 02:47:57;;;;;;;;;;;2.50;90.20;;;;;;5033097;28;19913;-76
2021/01/23 02:50:23;;;;;;;;;;;2.60;90.20;;;;;;5033118;28;19913;-76
2021/01/23 02:52:58;;;;;;;;;;;2.70;90.10;;;;;;5032472;28;19905;-83
2021/01/23 02:55:25;;;;;;;;;;;2.70;90.00;;;;;;5033102;28;19955;-76
2021/01/23 02:57:51;;;;;;;;;;;2.60;90.00;;;;;;5031841;28;19909;-77
2021/01/23 03:00:18;;;;;;;;;;;2.50;90.00;;;;;;5032517;28;19952;-76
2021/01/23 03:02:49;;;;;;;;;;;2.50;90.10;;;;;;5034106;28;19909;-76
2021/01/23 03:05:15;;;;;;;;;;;2.50;90.10;;;;;;5032571;28;19905;-76
2021/01/23 03:07:40;;;;;;;;;;;2.50;90.20;;;;;;5032799;28;20051;-76
2021/01/23 03:10:09;;;;;;;;;;;2.60;90.30;;;;;;5015806;28;19967;-77
2021/01/23 03:12:35;;;;;;;;;;;2.70;90.30;;;;;;5016190;28;19920;-77
2021/01/23 03:15:00;;;;;;;;;;;2.80;90.30;;;;;;5021232;28;19909;-77
2021/01/23 03:17:26;;;;;;;;;;;2.80;90.20;;;;;;5046128;28;19912;-76
2021/01/23 03:19:52;;;;;;;;;;;2.90;90.10;;;;;;5033058;28;19908;-81
2021/01/23 03:22:18;;;;;;;;;;;2.80;90.00;;;;;;5049236;28;19956;-77
2021/01/23 03:24:43;;;;;;;;;;;2.90;90.00;;;;;;5048824;28;19909;-76
2021/01/23 03:27:09;;;;;;;;;;;2.90;90.00;;;;;;5048822;28;19923;-77
2021/01/23 03:29:34;;;;;;;;;;;3.00;90.00;;;;;;5032510;28;19909;-75
2021/01/23 03:32:00;;;;;;;;;;;3.00;90.00;;;;;;5048422;28;20011;-76
2021/01/23 03:34:25;;;;;;;;;;;3.10;89.70;;;;;;5019237;28;19995;-76
2021/01/23 03:36:51;;;;;;;;;;;3.10;89.50;;;;;;5053762;28;19949;-81
2021/01/23 03:39:17;;;;;;;;;;;3.20;89.50;;;;;;5035448;28;19935;-76
2021/01/23 03:41:42;;;;;;;;;;;3.20;89.50;;;;;;5034518;28;19951;-77
2021/01/23 03:44:08;;;;;;;;;;;3.20;89.40;;;;;;5035345;28;20011;-76
2021/01/23 03:46:33;;;;;;;;;;;3.30;89.30;;;;;;5035885;28;19963;-76
2021/01/23 03:48:59;;;;;;;;;;;3.30;89.30;;;;;;5035333;28;19904;-77
2021/01/23 03:51:24;;;;;;;;;;;3.40;89.20;;;;;;5035813;28;19905;-76
2021/01/23 03:53:50;;;;;;;;;;;3.40;89.00;;;;;;5035667;28;19948;-76
2021/01/23 03:56:15;;;;;;;;;;;3.50;88.80;;;;;;5035476;28;19991;-76
2021/01/23 03:58:41;;;;;;;;;;;3.50;88.60;;;;;;5019004;28;19950;-76
2021/01/23 04:01:06;;;;;;;;;;;3.50;88.70;;;;;;5035353;28;20311;-77
2021/01/23 04:03:32;;;;;;;;;;;3.50;88.90;;;;;;5053000;28;20444;-76
2021/01/23 04:05:57;;;;;;;;;;;3.50;88.70;;;;;;5015012;28;19917;-77
2021/01/23 04:08:23;;;;;;;;;;;3.50;88.60;;;;;;5031948;28;19908;-76
2021/01/23 04:10:48;;;;;;;;;;;3.50;88.70;;;;;;5033325;28;20011;-76
2021/01/23 04:13:14;;;;;;;;;;;3.50;88.80;;;;;;5033600;28;19966;-76
2021/01/23 04:15:39;;;;;;;;;;;3.50;88.70;;;;;;5032249;28;19970;-76
2021/01/23 04:18:05;;;;;;;;;;;3.50;88.70;;;;;;5033564;28;19963;-76
2021/01/23 04:20:31;;;;;;;;;;;3.50;88.80;;;;;;5033527;28;19960;-76
2021/01/23 04:22:57;;;;;;;;;;;3.60;89.00;;;;;;5032065;28;19913;-79
2021/01/23 04:25:22;;;;;;;;;;;3.60;88.90;;;;;;5031972;28;19931;-76
2021/01/23 04:27:48;;;;;;;;;;;3.70;88.90;;;;;;5032277;28;20309;-76
2021/01/23 04:30:13;;;;;;;;;;;3.70;88.80;;;;;;5033063;28;20016;-76
2021/01/23 04:32:39;;;;;;;;;;;3.60;88.80;;;;;;5050940;28;20230;-76
2021/01/23 04:35:07;;;;;;;;;;;3.60;88.80;;;;;;5035326;28;19904;-76
2021/01/23 04:37:32;;;;;;;;;;;3.60;88.90;;;;;;5035114;28;19913;-76
2021/01/23 04:39:58;;;;;;;;;;;3.60;89.10;;;;;;5038393;28;19962;-76
2021/01/23 04:42:23;;;;;;;;;;;3.60;89.10;;;;;;5038714;28;19992;-76
2021/01/23 04:44:49;;;;;;;;;;;3.50;89.20;;;;;;5039821;28;20327;-76
2021/01/23 04:47:14;;;;;;;;;;;3.50;89.30;;;;;;5038678;28;19916;-76
2021/01/23 04:49:40;;;;;;;;;;;3.40;89.50;;;;;;5039093;28;19916;-76
2021/01/23 04:52:06;;;;;;;;;;;3.40;89.50;;;;;;5056504;28;20009;-76
2021/01/23 04:54:35;;;;;;;;;;;3.40;89.50;;;;;;5038926;28;20356;-76
2021/01/23 04:57:02;;;;;;;;;;;3.40;89.50;;;;;;5056542;28;19904;-81
2021/01/23 04:59:28;;;;;;;;;;;3.40;89.50;;;;;;5055960;28;19940;-76
2021/01/23 05:02:13;;;;;;;;;;;3.30;89.60;;;;;;5038362;28;19915;-76
2021/01/23 05:04:43;;;;;;;;;;;3.20;89.70;;;;;;5056414;28;19909;-75
2021/01/23 05:07:08;;;;;;;;;;;3.20;90.00;;;;;;5037679;28;20284;-77
2021/01/23 05:09:34;;;;;;;;;;;3.10;90.10;;;;;;5038477;28;19917;-76
2021/01/23 05:11:59;;;;;;;;;;;3.10;90.30;;;;;;5038586;28;19944;-77
2021/01/23 05:14:25;;;;;;;;;;;3.10;90.40;;;;;;5038110;28;20368;-76
2021/01/23 05:16:50;;;;;;;;;;;3.30;90.50;;;;;;5055863;28;19951;-76
2021/01/23 05:19:16;;;;;;;;;;;3.50;90.40;;;;;;5055432;28;19908;-77
2021/01/23 05:21:59;;;;;;;;;;;3.60;90.30;;;;;;5056049;28;19904;-76
2021/01/23 05:24:24;;;;;;;;;;;3.70;90.20;;;;;;5038035;28;19948;-76
2021/01/23 05:26:54;;;;;;;;;;;3.90;90.10;;;;;;5038038;28;19975;-76
2021/01/23 05:29:20;;;;;;;;;;;3.90;89.90;;;;;;5055479;28;20417;-76
2021/01/23 05:31:46;;;;;;;;;;;3.90;89.70;;;;;;5037513;28;19916;-78
2021/01/23 05:34:26;;;;;;;;;;;4.00;89.60;;;;;;5037346;28;20377;-76
2021/01/23 05:36:52;;;;;;;;;;;4.10;89.60;;;;;;5037791;28;20008;-76
2021/01/23 05:39:18;;;;;;;;;;;4.10;89.50;;;;;;5055062;28;20378;-76
2021/01/23 05:42:01;;;;;;;;;;;4.20;89.40;;;;;;5038794;28;19967;-76
2021/01/23 05:44:26;;;;;;;;;;;4.30;89.50;;;;;;5056221;28;19905;-76
2021/01/23 05:46:52;;;;;;;;;;;4.40;89.20;;;;;;5038407;28;19913;-76
2021/01/23 05:49:17;;;;;;;;;;;4.50;88.80;;;;;;5037851;28;19984;-76
2021/01/23 05:51:43;;;;;;;;;;;4.60;88.70;;;;;;5036330;28;19913;-76
2021/01/23 05:54:08;;;;;;;;;;;4.60;88.50;;;;;;5020218;28;20015;-84
2021/01/23 05:56:35;;;;;;;;;;;4.60;88.20;;;;;;5036441;28;19915;-77
2021/01/23 05:59:01;;;;;;;;;;;4.50;88.00;;;;;;5020502;28;19908;-76
2021/01/23 06:01:26;;;;;;;;;;;4.50;88.00;;;;;;5054868;28;19916;-75
2021/01/23 06:03:58;;;;;;;;;;;4.40;88.00;;;;;;5037375;28;19904;-76
2021/01/23 06:06:24;;;;;;;;;;;4.30;88.00;;;;;;5054964;28;19921;-75
2021/01/23 06:08:53;;;;;;;;;;;4.20;88.20;;;;;;5037486;28;19919;-76
2021/01/23 06:11:18;;;;;;;;;;;4.10;88.40;;;;;;5055224;28;19999;-75
2021/01/23 06:13:46;;;;;;;;;;;4.10;88.60;;;;;;5055379;28;20258;-75
2021/01/23 06:16:31;;;;;;;;;;;4.00;88.80;;;;;;5037761;28;19909;-80
2021/01/23 06:18:56;;;;;;;;;;;3.90;88.90;;;;;;5054725;28;19909;-76
2021/01/23 06:21:42;;;;;;;;;;;3.90;89.10;;;;;;5036076;28;19996;-75
2021/01/23 06:24:07;;;;;;;;;;;3.80;89.30;;;;;;5035836;28;19942;-76
2021/01/23 06:26:53;;;;;;;;;;;3.80;89.50;;;;;;5035764;28;20023;-75
2021/01/23 06:29:41;;;;;;;;;;;3.80;89.70;;;;;;5035885;28;19909;-76
2021/01/23 06:32:19;;;;;;;;;;;3.70;89.80;;;;;;5028638;28;20348;-76
2021/01/23 06:34:45;;;;;;;;;;;3.70;90.00;;;;;;5054615;28;19904;-75
2021/01/23 06:37:20;;;;;;;;;;;3.80;90.00;;;;;;5036539;28;19944;-75
2021/01/23 06:39:58;;;;;;;;;;;3.90;90.00;;;;;;5036440;28;20226;-76
2021/01/23 06:42:24;;;;;;;;;;;3.90;89.90;;;;;;5054118;28;19911;-75
2021/01/23 06:44:49;;;;;;;;;;;3.80;90.00;;;;;;5036427;28;19908;-76
2021/01/23 06:47:15;;;;;;;;;;;3.80;89.80;;;;;;5036639;28;19917;-76
2021/01/23 06:49:41;;;;;;;;;;;3.70;89.80;;;;;;5053833;28;20273;-76
2021/01/23 06:52:06;;;;;;;;;;;3.70;90.00;;;;;;5053146;28;20276;-76
2021/01/23 06:54:32;;;;;;;;;;;3.70;90.00;;;;;;5053805;28;19916;-76
2021/01/23 06:56:58;;;;;;;;;;;3.70;90.10;;;;;;5036627;28;19909;-76
2021/01/23 06:59:25;;;;;;;;;;;3.70;90.10;;;;;;5053903;28;20016;-76
2021/01/23 07:02:01;;;;;;;;;;;3.80;90.20;;;;;;5054012;28;19911;-75
2021/01/23 07:04:27;;;;;;;;;;;3.90;90.20;;;;;;5054218;28;19961;-75
2021/01/23 07:06:54;;;;;;;;;;;4.00;90.10;;;;;;5053562;28;20264;-76
2021/01/23 07:09:19;;;;;;;;;;;4.20;90.10;;;;;;5036120;28;19916;-81
2021/01/23 07:11:45;;;;;;;;;;;4.30;90.00;;;;;;5036226;28;19905;-75
2021/01/23 07:14:10;;;;;;;;;;;4.40;89.60;;;;;;5036412;28;20376;-75
2021/01/23 07:16:50;;;;;;;;;;;4.40;89.20;;;;;;5036129;28;19995;-76
2021/01/23 07:19:15;;;;;;;;;;;4.50;89.10;;;;;;5053924;28;19905;-75
2021/01/23 07:21:41;;;;;;;;;;;4.70;88.80;;;;;;5035572;28;19905;-76
2021/01/23 07:24:09;;;;;;;;;;;4.70;88.50;;;;;;5053856;28;20431;-75
2021/01/23 07:26:35;;;;;;;;;;;4.70;88.30;;;;;;5053324;28;19912;-75
2021/01/23 07:29:01;;;;;;;;;;;4.80;88.00;;;;;;5035536;28;19912;-75
2021/01/23 07:31:28;;;;;;;;;;;4.80;87.90;;;;;;5033752;28;20019;-76
2021/01/23 07:33:54;;;;;;;;;;;4.70;87.70;;;;;;5053358;28;19908;-75
2021/01/23 07:36:39;;;;;;;;;;;4.70;87.60;;;;;;5019020;28;20378;-76
2021/01/23 07:39:12;;;;;;;;;;;4.60;87.80;;;;;;5035670;28;19971;-75
2021/01/23 07:41:45;;;;;;;;;;;4.50;87.90;;;;;;5053204;28;19947;-74
2021/01/23 07:44:11;;;;;;;;;;;4.50;88.30;;;;;;5035690;28;19915;-74
2021/01/23 07:46:37;;;;;;;;;;;4.60;88.50;;;;;;5035439;28;19964;-74
2021/01/23 07:49:03;;;;;;;;;;;4.60;88.30;;;;;;5035700;28;20324;-74
2021/01/23 07:51:30;;;;;;;;;;;4.60;88.00;;;;;;5019246;28;19909;-76
2021/01/23 07:54:11;;;;;;;;;;;4.60;88.20;;;;;;5035823;28;19905;-75
2021/01/23 07:56:54;;;;;;;;;;;4.60;88.00;;;;;;5035593;28;19919;-75
2021/01/23 07:59:21;;;;;;;;;;;4.70;87.90;;;;;;5035600;28;19905;-75
2021/01/23 08:01:47;;;;;;;;;;;4.80;88.00;;;;;;5052835;28;19981;-75
2021/01/23 08:04:28;;;;;;;;;;;4.80;87.70;;;;;;5031304;28;19952;-75
2021/01/23 08:07:12;;;;;;;;;;;5.00;87.80;;;;;;5031647;28;19982;-74
2021/01/23 08:09:38;;;;;;;;;;;5.10;87.60;;;;;;5032419;28;19920;-75
2021/01/23 08:12:03;;;;;;;;;;;5.10;87.20;;;;;;5015366;28;19909;-75
2021/01/23 08:14:29;;;;;;;;;;;5.10;87.10;;;;;;5040135;28;20304;-78
2021/01/23 08:16:56;;;;;;;;;;;5.20;87.10;;;;;;5019626;28;19996;-75
2021/01/23 08:19:22;;;;;;;;;;;5.30;86.80;;;;;;5035104;28;19991;-74
2021/01/23 08:22:03;;;;;;;;;;;5.30;86.50;;;;;;5052815;28;20015;-74
2021/01/23 08:24:30;;;;;;;;;;;5.40;86.40;;;;;;5035115;28;19904;-80
2021/01/23 08:27:14;;;;;;;;;;;5.40;86.40;;;;;;5034957;28;20055;-75
2021/01/23 08:29:41;;;;;;;;;;;5.40;86.00;;;;;;5052273;28;19915;-75
2021/01/23 08:32:07;;;;;;;;;;;5.40;85.80;;;;;;5035151;28;19944;-76
2021/01/23 08:34:33;;;;;;;;;;;5.50;85.60;;;;;;5014953;28;20689;-83
2021/01/23 08:36:59;;;;;;;;;;;5.50;85.60;;;;;;5031698;28;19913;-77
2021/01/23 08:39:24;;;;;;;;;;;5.40;85.60;;;;;;5014169;28;20011;-77
2021/01/23 08:41:50;;;;;;;;;;;5.30;85.50;;;;;;5031015;28;19909;-75
2021/01/23 08:44:15;;;;;;;;;;;5.20;85.70;;;;;;5032117;28;20428;-75
2021/01/23 08:46:41;;;;;;;;;;;5.20;85.90;;;;;;5031972;28;20429;-75
2021/01/23 08:49:06;;;;;;;;;;;5.20;85.90;;;;;;5031082;28;19913;-76
2021/01/23 08:51:33;;;;;;;;;;;5.10;85.70;;;;;;5031083;28;19946;-76
2021/01/23 08:53:59;;;;;;;;;;;5.20;86.10;;;;;;5014656;28;20015;-76
2021/01/23 08:56:24;;;;;;;;;;;5.40;86.40;;;;;;5031809;28;20424;-76
2021/01/23 08:58:50;;;;;;;;;;;5.60;85.80;;;;;;5031170;28;19959;-76
2021/01/23 09:01:15;;;;;;;;;;;5.70;85.00;;;;;;5032364;28;20472;-76
2021/01/23 09:03:41;;;;;;;;;;;6.00;84.20;;;;;;5014806;28;19939;-74
2021/01/23 09:06:07;;;;;;;;;;;6.10;83.60;;;;;;5031806;28;19905;-76
2021/01/23 09:08:33;;;;;;;;;;;6.30;83.80;;;;;;5011549;28;20397;-75
2021/01/23 09:10:58;;;;;;;;;;;6.30;83.40;;;;;;5036309;28;19996;-79
2021/01/23 09:13:24;;;;;;;;;;;6.30;83.40;;;;;;5031826;28;20260;-76
2021/01/23 09:15:49;;;;;;;;;;;6.30;83.10;;;;;;5032388;28;20278;-77
2021/01/23 09:18:15;;;;;;;;;;;6.40;82.80;;;;;;5015286;28;19920;-75
2021/01/23 09:20:40;;;;;;;;;;;6.60;84.10;;;;;;5032173;28;19963;-77
2021/01/23 09:23:06;;;;;;;;;;;6.90;82.30;;;;;;5032643;28;20311;-76
2021/01/23 09:25:31;;;;;;;;;;;7.10;82.60;;;;;;5016470;28;20308;-76
2021/01/23 09:27:57;;;;;;;;;;;7.10;81.70;;;;;;5035551;28;19909;-76
2021/01/23 09:30:23;;;;;;;;;;;7.20;81.40;;;;;;5035527;28;20011;-76
2021/01/23 09:32:49;;;;;;;;;;;7.20;81.20;;;;;;5017477;28;20415;-77
2021/01/23 09:35:14;;;;;;;;;;;7.20;80.70;;;;;;5035336;28;20629;-77
2021/01/23 09:37:40;;;;;;;;;;;7.20;79.90;;;;;;5035373;28;19915;-78
2021/01/23 09:40:06;;;;;;;;;;;7.20;79.90;;;;;;5034373;28;19920;-79
2021/01/23 09:42:32;;;;;;;;;;;7.20;79.80;;;;;;5034816;28;19913;-78
2021/01/23 09:44:57;;;;;;;;;;;7.20;79.20;;;;;;5033138;28;19912;-79
2021/01/23 09:47:23;;;;;;;;;;;7.20;79.00;;;;;;5034918;28;19939;-77
2021/01/23 09:49:49;;;;;;;;;;;7.20;79.50;;;;;;5033554;28;19948;-77
2021/01/23 09:52:14;;;;;;;;;;;7.10;78.90;;;;;;5035786;28;19928;-76
2021/01/23 09:54:40;;;;;;;;;;;7.10;78.90;;;;;;5034200;28;19912;-77
2021/01/23 09:57:05;;;;;;;;;;;7.10;79.60;;;;;;5018318;28;20383;-77
2021/01/23 09:59:31;;;;;;;;;;;7.30;79.90;;;;;;5034818;28;20059;-77
2021/01/23 10:02:00;;;;;;;;;;;7.50;79.60;;;;;;5035227;28;20054;-78
2021/01/23 10:04:26;;;;;;;;;;;7.50;78.60;;;;;;5035412;28;19905;-76
2021/01/23 10:06:51;;;;;;;;;;;7.40;78.90;;;;;;5034349;28;19978;-76
2021/01/23 10:09:17;;;;;;;;;;;7.40;79.40;;;;;;5034666;28;19913;-76
2021/01/23 10:11:43;;;;;;;;;;;7.50;79.30;;;;;;5034933;28;19913;-76
2021/01/23 10:14:09;;;;;;;;;;;7.70;79.20;;;;;;5035599;28;19916;-77
2021/01/23 10:16:34;;;;;;;;;;;7.80;78.90;;;;;;5035108;28;19909;-76
2021/01/23 10:19:03;;;;;;;;;;;8.00;78.90;;;;;;5035952;28;19909;-77
2021/01/23 10:21:29;;;;;;;;;;;8.30;78.90;;;;;;5034816;28;20008;-76
2021/01/23 10:23:54;;;;;;;;;;;8.60;78.00;;;;;;5034271;28;19937;-77
2021/01/23 10:26:20;;;;;;;;;;;8.50;75.00;;;;;;5035449;28;19909;-77
2021/01/23 10:28:45;;;;;;;;;;;8.30;76.20;;;;;;5034433;28;19944;-79
2021/01/23 10:31:11;;;;;;;;;;;8.30;76.90;;;;;;5041944;28;20253;-78
2021/01/23 10:33:36;;;;;;;;;;;8.20;76.90;;;;;;5021414;28;19913;-77
2021/01/23 10:36:02;;;;;;;;;;;8.20;75.90;;;;;;5020505;28;19999;-77
2021/01/23 10:38:28;;;;;;;;;;;8.30;77.30;;;;;;5037500;28;19905;-76
2021/01/23 10:40:54;;;;;;;;;;;8.50;75.50;;;;;;5019842;28;20379;-76
2021/01/23 10:43:19;;;;;;;;;;;8.50;75.40;;;;;;5020412;28;20066;-76
2021/01/23 10:45:46;;;;;;;;;;;8.60;75.90;;;;;;5036745;28;20408;-76
2021/01/23 10:48:11;;;;;;;;;;;9.00;76.30;;;;;;5053651;28;19904;-76
2021/01/23 10:50:37;;;;;;;;;;;9.40;75.70;;;;;;5035695;28;19990;-77
2021/01/23 10:53:02;;;;;;;;;;;9.80;74.20;;;;;;5035851;28;19963;-78
2021/01/23 10:55:28;;;;;;;;;;;10.20;72.40;;;;;;5036137;28;20313;-77
2021/01/23 10:57:53;;;;;;;;;;;10.70;71.10;;;;;;5054042;28;20008;-82
2021/01/23 11:00:19;;;;;;;;;;;10.60;71.40;;;;;;5015569;28;19913;-78
2021/01/23 11:02:45;;;;;;;;;;;10.50;69.00;;;;;;5033826;28;19913;-77
2021/01/23 11:05:10;;;;;;;;;;;10.30;70.30;;;;;;5033907;28;19905;-77
2021/01/23 11:07:36;;;;;;;;;;;10.10;71.50;;;;;;5049702;28;19919;-77
2021/01/23 11:10:02;;;;;;;;;;;10.00;71.90;;;;;;5019178;28;19917;-78
2021/01/23 11:12:28;;;;;;;;;;;9.80;70.60;;;;;;5054304;28;20003;-77
2021/01/23 11:14:53;;;;;;;;;;;9.60;72.70;;;;;;5053974;28;19948;-78
2021/01/23 11:17:19;;;;;;;;;;;9.40;72.70;;;;;;5054158;28;20339;-77
2021/01/23 11:19:44;;;;;;;;;;;9.20;73.50;;;;;;5036675;28;19908;-77
2021/01/23 11:22:10;;;;;;;;;;;9.10;74.10;;;;;;5019439;28;20003;-81
2021/01/23 11:24:35;;;;;;;;;;;9.00;73.80;;;;;;5054175;28;20367;-78
2021/01/23 11:27:01;;;;;;;;;;;8.80;73.30;;;;;;5053673;28;19913;-77
2021/01/23 11:29:27;;;;;;;;;;;8.50;72.40;;;;;;5035346;28;19924;-76
2021/01/23 11:31:52;;;;;;;;;;;8.40;73.60;;;;;;5018967;28;20007;-75
2021/01/23 11:34:18;;;;;;;;;;;8.30;74.50;;;;;;5035528;28;19916;-76
2021/01/23 11:36:43;;;;;;;;;;;8.30;75.20;;;;;;5035485;28;19947;-76
2021/01/23 11:39:09;;;;;;;;;;;8.20;72.90;;;;;;5035337;28;19915;-76
2021/01/23 11:41:34;;;;;;;;;;;8.00;72.50;;;;;;5035040;28;19931;-76
2021/01/23 11:44:00;;;;;;;;;;;7.80;71.90;;;;;;5018743;28;20313;-76
2021/01/23 11:46:27;;;;;;;;;;;7.70;73.50;;;;;;5035299;28;19913;-76
2021/01/23 11:48:52;;;;;;;;;;;7.60;73.60;;;;;;5033409;28;19967;-75
2021/01/23 11:51:18;;;;;;;;;;;7.60;75.10;;;;;;5032986;28;19905;-75
2021/01/23 11:53:43;;;;;;;;;;;7.70;75.00;;;;;;5033914;28;19916;-75
2021/01/23 11:56:09;;;;;;;;;;;7.60;74.50;;;;;;5052968;28;19909;-76
2021/01/23 11:58:34;;;;;;;;;;;7.60;74.20;;;;;;5018999;28;19944;-75
2021/01/23 12:01:00;;;;;;;;;;;7.60;74.40;;;;;;5015142;28;19913;-79
2021/01/23 12:03:25;;;;;;;;;;;7.60;75.30;;;;;;5031578;28;19917;-75
2021/01/23 12:05:51;;;;;;;;;;;7.50;74.20;;;;;;5032130;28;20416;-77
2021/01/23 12:08:16;;;;;;;;;;;7.60;75.00;;;;;;5032198;28;20369;-77
2021/01/23 12:10:43;;;;;;;;;;;7.70;75.80;;;;;;5034461;28;19913;-78
2021/01/23 12:13:08;;;;;;;;;;;7.90;74.10;;;;;;5052313;28;19931;-77
2021/01/23 12:15:34;;;;;;;;;;;7.90;73.80;;;;;;5034552;28;19909;-76
2021/01/23 12:18:00;;;;;;;;;;;8.00;73.10;;;;;;5014326;28;19913;-75
2021/01/23 12:20:25;;;;;;;;;;;8.10;73.40;;;;;;5043266;28;20275;-76
2021/01/23 12:22:51;;;;;;;;;;;8.20;73.10;;;;;;5018507;28;20277;-76
2021/01/23 12:25:16;;;;;;;;;;;8.20;71.50;;;;;;5052138;28;19969;-76
2021/01/23 12:27:42;;;;;;;;;;;8.30;72.70;;;;;;5052148;28;20023;-76
2021/01/23 12:30:09;;;;;;;;;;;8.40;72.90;;;;;;5051403;28;19983;-76
2021/01/23 12:32:34;;;;;;;;;;;8.40;72.30;;;;;;5033803;28;19921;-75
2021/01/23 12:35:00;;;;;;;;;;;8.50;72.20;;;;;;5033714;28;20391;-75
2021/01/23 12:37:26;;;;;;;;;;;8.40;71.20;;;;;;5051056;28;19916;-75
2021/01/23 12:39:51;;;;;;;;;;;8.40;69.90;;;;;;5034325;28;19919;-75
2021/01/23 12:42:17;;;;;;;;;;;8.40;70.50;;;;;;5017618;28;20222;-76
2021/01/23 12:44:42;;;;;;;;;;;8.40;70.40;;;;;;5051869;28;19911;-76
2021/01/23 12:47:08;;;;;;;;;;;8.40;70.30;;;;;;5051598;28;19930;-84
2021/01/23 12:49:33;;;;;;;;;;;8.40;71.00;;;;;;5033331;28;20307;-78
2021/01/23 12:51:59;;;;;;;;;;;8.50;71.40;;;;;;5052648;28;19961;-76
2021/01/23 12:54:24;;;;;;;;;;;8.50;68.90;;;;;;5051078;28;19916;-76
2021/01/23 12:56:51;;;;;;;;;;;8.40;69.40;;;;;;5051589;28;19913;-76
2021/01/23 12:59:17;;;;;;;;;;;8.40;70.90;;;;;;5051226;28;19919;-76
2021/01/23 13:01:43;;;;;;;;;;;8.40;70.20;;;;;;5056603;28;19905;-75
2021/01/23 13:04:08;;;;;;;;;;;8.40;69.50;;;;;;5054885;28;19905;-82
2021/01/23 13:06:34;;;;;;;;;;;8.40;69.90;;;;;;5036944;28;20374;-76
2021/01/23 13:09:00;;;;;;;;;;;8.50;70.80;;;;;;5037729;28;19924;-78
2021/01/23 13:11:25;;;;;;;;;;;8.50;69.10;;;;;;5055422;28;19908;-75
2021/01/23 13:13:51;;;;;;;;;;;8.50;70.40;;;;;;5056181;28;19911;-77
2021/01/23 13:16:17;;;;;;;;;;;8.60;71.60;;;;;;5055627;28;19905;-78
2021/01/23 13:18:43;;;;;;;;;;;8.70;71.20;;;;;;5038524;28;19958;-77
2021/01/23 13:21:09;;;;;;;;;;;8.80;71.80;;;;;;5038167;28;19952;-77
2021/01/23 13:23:35;;;;;;;;;;;8.90;71.10;;;;;;5055859;28;19924;-76
2021/01/23 13:26:00;;;;;;;;;;;9.10;71.80;;;;;;5021413;28;19909;-76
2021/01/23 13:28:26;;;;;;;;;;;9.10;69.30;;;;;;5037224;28;19913;-76
2021/01/23 13:30:51;;;;;;;;;;;9.10;70.10;;;;;;5055512;28;20366;-76
2021/01/23 13:33:17;;;;;;;;;;;9.00;70.10;;;;;;5037433;28;19958;-79
2021/01/23 13:35:42;;;;;;;;;;;9.00;69.90;;;;;;5055076;28;19913;-76
2021/01/23 13:38:08;;;;;;;;;;;9.00;69.80;;;;;;5038194;28;19958;-76
2021/01/23 13:40:33;;;;;;;;;;;8.90;70.80;;;;;;5055359;28;19982;-77
2021/01/23 13:42:59;;;;;;;;;;;8.80;69.00;;;;;;5038127;28;19904;-76
2021/01/23 13:45:24;;;;;;;;;;;8.80;69.10;;;;;;5055735;28;19905;-76
2021/01/23 13:47:50;;;;;;;;;;;8.90;70.80;;;;;;5021595;28;19913;-76
2021/01/23 13:50:15;;;;;;;;;;;8.90;70.80;;;;;;5037891;28;19913;-79
2021/01/23 13:52:41;;;;;;;;;;;9.00;71.20;;;;;;5055444;28;19909;-76
2021/01/23 13:55:07;;;;;;;;;;;9.10;71.50;;;;;;5038566;28;19913;-77
2021/01/23 13:57:32;;;;;;;;;;;9.20;71.60;;;;;;5037857;28;20277;-76
2021/01/23 13:59:58;;;;;;;;;;;9.20;71.30;;;;;;5055888;28;19916;-76
2021/01/23 14:02:23;;;;;;;;;;;9.20;71.60;;;;;;5037797;28;20312;-77
2021/01/23 14:04:50;;;;;;;;;;;9.20;71.90;;;;;;5037897;28;19915;-76
2021/01/23 14:07:15;;;;;;;;;;;9.20;71.60;;;;;;5054978;28;19913;-77
2021/01/23 14:09:41;;;;;;;;;;;9.20;72.20;;;;;;5037570;28;19943;-78
2021/01/23 14:12:06;;;;;;;;;;;9.10;72.30;;;;;;5053423;28;19916;-76
2021/01/23 14:14:32;;;;;;;;;;;9.10;72.30;;;;;;5037213;28;19952;-75
2021/01/23 14:16:57;;;;;;;;;;;9.10;72.50;;;;;;5055275;28;19916;-76
2021/01/23 14:19:23;;;;;;;;;;;9.00;71.60;;;;;;5037536;28;19920;-77
2021/01/23 14:21:49;;;;;;;;;;;9.00;70.00;;;;;;5037265;28;19913;-78
2021/01/23 14:24:14;;;;;;;;;;;8.90;71.20;;;;;;5023383;28;20007;-79
2021/01/23 14:26:40;;;;;;;;;;;8.90;71.90;;;;;;5054116;28;19957;-78